West Pointe A la Hache, Louisiana
Current Conditions -  °F | °C
As of 2:55 AM on Sunday 21 Dec 2014 (Local Time) from KNBG Reporting Station
Overcast Overcast  
Wind Chill: 53°   Ceiling: 1100
Heat Index: 53°   Visibility: 10mi
Dew Point: 49°   Wind: 6mph
Humidity: 86%   Direction: 40°NE
Pressure: 30.13"   Gusts: NA
Location:  29.4927°N, 89.8165°W
Report Text: KNBG 210855Z AUTO 04005KT 10SM OVC011 12/09 A3013 RMK AO2 SLP201 T01170094 55008 $
Loading
Personal Weather Stations






























Interactive Weather Map New forecast layout! Learn more

10-Day Weather Forecast

Advertisements
Track Severe Weather on mobile